Exeland, Wisconsin
Current Conditions -  °F | °C
As of 5:55 PM on Friday 28 Nov 2014 (Local Time) from KRCX Reporting Station
Scattered Clouds Scattered Clouds  
Wind Chill: 10°   Ceiling: Unl
Heat Index: 17°   Visibility: 10mi
Dew Point: 13°   Wind: 5mph
Humidity: 84%   Direction: 110°ESE
Pressure: 29.88"   Gusts: NA
Location:  45.67°N, 91.24°W
Report Text: KRCX 282355Z AUTO 11004KT 10SM SCT100 M08/M10 A2988 RMK AO2 T10811103 11072 21087
Loading
Personal Weather Stations






























Interactive Weather Map New forecast layout! Learn more

10-Day Weather Forecast

Advertisements
Track Severe Weather on mobile